Time;durP1;ratioP1;P1;durP2;ratioP2;P2;SDS_P1;SDS_P2;PMS_P1;PMS_P2;Temp;Humidity;BMP_temperature;BMP_pressure;BME280_temperature;BME280_humidity;BME280_pressure;Samples;Min_cycle;Max_cycle;Signal;HPM_P1;HPM_P2
2021/09/06 00:01:51;;;;;;;16.43;11.80;;;20.30;99.90;;;;;;5004482;28;20489;-74
2021/09/06 00:04:20;;;;;;;17.13;12.47;;;20.40;99.90;;;;;;5005940;28;20453;-75
2021/09/06 00:06:48;;;;;;;15.10;11.20;;;20.40;99.90;;;;;;5002225;28;20465;-76
2021/09/06 00:09:16;;;;;;;13.53;10.77;;;20.30;99.90;;;;;;5007978;28;20496;-74
2021/09/06 00:11:44;;;;;;;13.23;9.83;;;20.30;99.90;;;;;;5002049;28;20465;-77
2021/09/06 00:14:13;;;;;;;17.07;10.77;;;20.30;99.90;;;;;;5009580;28;20466;-75
2021/09/06 00:16:42;;;;;;;18.33;11.30;;;20.30;99.90;;;;;;5007994;28;20943;-76
2021/09/06 00:19:10;;;;;;;15.30;10.20;;;20.30;99.90;;;;;;5008602;28;20516;-75
2021/09/06 00:21:38;;;;;;;13.53;11.10;;;20.30;99.90;;;;;;5006079;28;21110;-75
2021/09/06 00:24:06;;;;;;;14.33;10.87;;;20.20;99.90;;;;;;5008840;28;20815;-77
2021/09/06 00:26:35;;;;;;;15.33;10.07;;;20.20;99.90;;;;;;5007407;28;20469;-75
2021/09/06 00:29:03;;;;;;;17.40;11.10;;;20.20;99.90;;;;;;5005766;28;20460;-75
2021/09/06 00:31:31;;;;;;;14.27;9.57;;;20.10;99.90;;;;;;5001945;28;20500;-76
2021/09/06 00:34:00;;;;;;;16.60;10.93;;;20.10;99.90;;;;;;5008025;28;21060;-75
2021/09/06 00:36:29;;;;;;;12.90;10.03;;;20.10;99.90;;;;;;5005890;28;20454;-74
2021/09/06 00:38:57;;;;;;;15.20;10.50;;;20.10;99.90;;;;;;5005831;28;20488;-74
2021/09/06 00:41:25;;;;;;;14.90;10.87;;;20.10;99.90;;;;;;5006172;28;20473;-75
2021/09/06 00:43:54;;;;;;;18.53;13.50;;;20.00;99.90;;;;;;5005272;28;20461;-76
2021/09/06 00:46:23;;;;;;;22.60;14.10;;;20.00;99.90;;;;;;5005577;28;20465;-75
2021/09/06 00:48:51;;;;;;;20.80;15.30;;;20.00;99.90;;;;;;5007567;28;20461;-75
2021/09/06 00:51:21;;;;;;;18.87;13.57;;;20.00;99.90;;;;;;5007419;28;20575;-76
2021/09/06 00:53:49;;;;;;;23.43;15.60;;;20.00;99.90;;;;;;5008019;28;20467;-75
2021/09/06 00:56:17;;;;;;;20.10;13.40;;;19.90;99.90;;;;;;5008063;28;21391;-74
2021/09/06 00:58:48;;;;;;;16.13;10.73;;;19.90;99.90;;;;;;5006670;28;20461;-75
2021/09/06 01:01:16;;;;;;;16.53;10.13;;;19.90;99.90;;;;;;5005941;28;20500;-75
2021/09/06 01:03:44;;;;;;;9.53;8.37;;;19.90;99.90;;;;;;5008387;28;20456;-75
2021/09/06 01:06:12;;;;;;;14.30;8.20;;;19.90;99.90;;;;;;5007114;28;20468;-74
2021/09/06 01:08:42;;;;;;;9.37;6.97;;;19.80;99.90;;;;;;5006034;28;20442;-75
2021/09/06 01:11:10;;;;;;;11.43;8.47;;;19.80;99.90;;;;;;5006251;28;20465;-76
2021/09/06 01:13:38;;;;;;;14.20;8.30;;;19.80;99.90;;;;;;5008007;28;20477;-75
2021/09/06 01:16:06;;;;;;;14.03;9.37;;;19.70;99.90;;;;;;5005153;28;20465;-75
2021/09/06 01:18:35;;;;;;;12.20;9.13;;;19.80;99.90;;;;;;5008073;28;20484;-77
2021/09/06 01:21:03;;;;;;;13.50;10.23;;;19.70;99.90;;;;;;5005836;28;20496;-74
2021/09/06 01:23:31;;;;;;;18.03;10.20;;;19.70;99.90;;;;;;5006782;28;20520;-74
2021/09/06 01:26:01;;;;;;;18.63;10.57;;;19.70;99.90;;;;;;5003488;28;20457;-74
2021/09/06 01:28:30;;;;;;;11.93;9.80;;;19.70;99.90;;;;;;5002294;28;20454;-74
2021/09/06 01:30:58;;;;;;;15.30;10.90;;;19.70;99.90;;;;;;4999889;28;20532;-75
2021/09/06 01:33:26;;;;;;;14.23;9.73;;;19.70;99.90;;;;;;5004149;28;20506;-77
2021/09/06 01:35:54;;;;;;;15.50;12.40;;;19.60;99.90;;;;;;5007812;28;20464;-74
2021/09/06 01:38:22;;;;;;;13.60;10.43;;;19.60;99.90;;;;;;5007252;28;20462;-75
2021/09/06 01:40:50;;;;;;;15.90;11.63;;;19.60;99.90;;;;;;5005344;28;20507;-74
2021/09/06 01:43:20;;;;;;;12.73;8.80;;;19.60;99.90;;;;;;5008562;28;20480;-75
2021/09/06 01:45:48;;;;;;;10.73;8.97;;;19.60;99.90;;;;;;5005146;28;20469;-74
2021/09/06 01:48:16;;;;;;;12.00;8.60;;;19.60;99.90;;;;;;5007291;28;20447;-75
2021/09/06 01:50:44;;;;;;;16.53;10.27;;;19.50;99.90;;;;;;5006149;28;20460;-74
2021/09/06 01:53:12;;;;;;;13.10;9.90;;;19.50;99.90;;;;;;5007505;28;20461;-74
2021/09/06 01:55:40;;;;;;;15.40;10.40;;;19.40;99.90;;;;;;5007073;28;20520;-75
2021/09/06 01:58:08;;;;;;;13.30;9.80;;;19.40;99.90;;;;;;5005683;28;20832;-75
2021/09/06 02:00:38;;;;;;;13.60;10.50;;;19.40;99.90;;;;;;4994542;28;20449;-76
2021/09/06 02:03:06;;;;;;;13.40;10.23;;;19.40;99.90;;;;;;5000404;28;20472;-76
2021/09/06 02:05:35;;;;;;;14.30;9.90;;;19.40;99.90;;;;;;5008603;28;20519;-75
2021/09/06 02:08:03;;;;;;;15.83;12.00;;;19.40;99.90;;;;;;5012013;28;21709;-76
2021/09/06 02:10:31;;;;;;;16.83;12.10;;;19.40;99.90;;;;;;5010555;28;20810;-77
2021/09/06 02:12:59;;;;;;;14.70;11.13;;;19.40;99.90;;;;;;5010558;28;20809;-75
2021/09/06 02:15:27;;;;;;;17.93;13.17;;;19.30;99.90;;;;;;5008326;28;20536;-74
2021/09/06 02:17:57;;;;;;;18.67;12.83;;;19.40;99.90;;;;;;5010791;28;20457;-77
2021/09/06 02:20:25;;;;;;;14.90;11.13;;;19.30;99.90;;;;;;5010023;28;20555;-75
2021/09/06 02:22:53;;;;;;;20.03;12.93;;;19.30;99.90;;;;;;5009962;28;20864;-75
2021/09/06 02:25:21;;;;;;;13.90;10.57;;;19.30;99.90;;;;;;5010966;28;20968;-75
2021/09/06 02:27:49;;;;;;;17.37;12.70;;;19.20;99.90;;;;;;5010343;28;20444;-76
2021/09/06 02:30:17;;;;;;;15.67;11.07;;;19.20;99.90;;;;;;5009190;28;20456;-74
2021/09/06 02:32:45;;;;;;;13.00;10.00;;;19.20;99.90;;;;;;5007668;28;20481;-73
2021/09/06 02:35:15;;;;;;;15.40;11.53;;;19.20;99.90;;;;;;5010303;28;20483;-75
2021/09/06 02:37:44;;;;;;;17.30;12.43;;;19.20;99.90;;;;;;5004833;28;20464;-76
2021/09/06 02:40:13;;;;;;;16.00;11.93;;;19.20;99.90;;;;;;5005443;28;20497;-73
2021/09/06 02:42:42;;;;;;;14.57;11.23;;;19.20;99.90;;;;;;5009520;28;20523;-74
2021/09/06 02:45:11;;;;;;;14.20;11.60;;;19.10;99.90;;;;;;5009457;28;20471;-76
2021/09/06 02:47:39;;;;;;;12.87;9.93;;;19.10;99.90;;;;;;4990798;28;20537;-76
2021/09/06 02:50:08;;;;;;;13.10;9.40;;;19.10;99.90;;;;;;5005329;28;20487;-76
2021/09/06 02:52:39;;;;;;;12.17;8.77;;;19.00;99.90;;;;;;5002871;28;20543;-76
2021/09/06 02:55:08;;;;;;;11.57;8.17;;;19.00;99.90;;;;;;5010576;28;20903;-75
2021/09/06 02:57:36;;;;;;;11.13;8.50;;;19.00;99.90;;;;;;5010217;28;20456;-76
2021/09/06 03:00:05;;;;;;;9.80;7.60;;;19.00;99.90;;;;;;5009419;28;20859;-75
2021/09/06 03:02:33;;;;;;;11.50;8.10;;;19.00;99.90;;;;;;5009456;28;20609;-76
2021/09/06 03:05:02;;;;;;;11.63;8.80;;;19.00;99.90;;;;;;5008237;28;20485;-75
2021/09/06 03:07:31;;;;;;;12.77;10.33;;;18.90;99.90;;;;;;5008221;28;20481;-74
2021/09/06 03:10:00;;;;;;;9.53;7.33;;;18.90;99.90;;;;;;5007593;28;20445;-74
2021/09/06 03:12:28;;;;;;;12.87;9.17;;;18.90;99.90;;;;;;5009921;28;20470;-75
2021/09/06 03:14:57;;;;;;;13.07;9.20;;;18.80;99.90;;;;;;5008720;28;20461;-72
2021/09/06 03:17:25;;;;;;;10.30;7.40;;;18.80;99.90;;;;;;5008236;28;20452;-75
2021/09/06 03:19:53;;;;;;;9.40;7.00;;;18.80;99.90;;;;;;5008383;28;20468;-75
2021/09/06 03:22:22;;;;;;;9.03;7.33;;;18.90;99.90;;;;;;5009633;28;20570;-75
2021/09/06 03:24:50;;;;;;;10.00;8.40;;;18.80;99.90;;;;;;5005052;28;20838;-74
2021/09/06 03:27:19;;;;;;;11.83;7.83;;;18.80;99.90;;;;;;5006174;28;20536;-74
2021/09/06 03:29:47;;;;;;;8.20;6.73;;;18.90;99.90;;;;;;5006932;28;20458;-74
2021/09/06 03:32:16;;;;;;;8.13;6.97;;;18.80;99.90;;;;;;5004955;28;21007;-75
2021/09/06 03:34:44;;;;;;;8.27;6.97;;;18.80;99.90;;;;;;5010037;28;21011;-74
2021/09/06 03:37:12;;;;;;;10.07;6.50;;;18.80;99.90;;;;;;5007887;28;20449;-74
2021/09/06 03:39:40;;;;;;;10.33;7.07;;;18.70;99.90;;;;;;5007923;28;20444;-75
2021/09/06 03:42:08;;;;;;;8.10;5.63;;;18.70;99.90;;;;;;5009932;28;20469;-74
2021/09/06 03:44:37;;;;;;;9.87;6.63;;;18.70;99.90;;;;;;5007462;28;20484;-75
2021/09/06 03:47:06;;;;;;;10.10;5.83;;;18.70;99.90;;;;;;5007447;28;20517;-76
2021/09/06 03:49:34;;;;;;;9.00;7.10;;;18.60;99.90;;;;;;5007716;28;20491;-74
2021/09/06 03:52:02;;;;;;;9.17;6.70;;;18.60;99.90;;;;;;5008691;28;20487;-74
2021/09/06 03:54:30;;;;;;;8.13;6.10;;;18.60;99.90;;;;;;5009379;28;20515;-75
2021/09/06 03:56:58;;;;;;;9.50;6.20;;;18.60;99.90;;;;;;5006825;28;20464;-75
2021/09/06 03:59:26;;;;;;;9.37;5.80;;;18.60;99.90;;;;;;5008671;28;20972;-75
2021/09/06 04:01:55;;;;;;;9.83;6.87;;;18.60;99.90;;;;;;5007310;28;20487;-77
2021/09/06 04:04:24;;;;;;;7.67;6.50;;;18.50;99.90;;;;;;5006277;28;20510;-75
2021/09/06 04:06:52;;;;;;;7.30;6.03;;;18.50;99.90;;;;;;5008635;28;20983;-75
2021/09/06 04:09:21;;;;;;;8.23;5.83;;;18.50;99.90;;;;;;5007328;28;20460;-75
2021/09/06 04:11:50;;;;;;;6.50;5.83;;;18.50;99.90;;;;;;5008927;28;20534;-74
2021/09/06 04:14:21;;;;;;;9.13;7.40;;;18.50;99.90;;;;;;5007687;28;21098;-76
2021/09/06 04:16:49;;;;;;;8.33;6.27;;;18.50;99.90;;;;;;5007544;28;20491;-75
2021/09/06 04:19:18;;;;;;;8.57;6.70;;;18.50;99.90;;;;;;5009018;28;20868;-75
2021/09/06 04:21:46;;;;;;;7.33;6.60;;;18.50;99.90;;;;;;5006667;28;20501;-76
2021/09/06 04:24:15;;;;;;;6.00;5.40;;;18.50;99.90;;;;;;5009065;28;20499;-75
2021/09/06 04:26:43;;;;;;;6.47;5.70;;;18.40;99.90;;;;;;5009670;28;20511;-75
2021/09/06 04:29:11;;;;;;;7.57;6.23;;;18.40;99.90;;;;;;5006868;28;20452;-75
2021/09/06 04:31:39;;;;;;;9.30;8.40;;;18.40;99.90;;;;;;5002499;28;20464;-74
2021/09/06 04:34:07;;;;;;;12.10;8.70;;;18.40;99.90;;;;;;5008670;28;20475;-73
2021/09/06 04:36:36;;;;;;;8.07;6.30;;;18.40;99.90;;;;;;5006041;28;20819;-75
2021/09/06 04:39:05;;;;;;;9.97;7.57;;;18.30;99.90;;;;;;5007512;28;21089;-76
2021/09/06 04:41:33;;;;;;;8.97;7.60;;;18.30;99.90;;;;;;5007499;28;20534;-77
2021/09/06 04:44:01;;;;;;;7.43;6.50;;;18.30;99.90;;;;;;5006411;28;20452;-75
2021/09/06 04:46:29;;;;;;;7.00;6.30;;;18.30;99.90;;;;;;5007893;28;20487;-76
2021/09/06 04:48:57;;;;;;;8.30;6.40;;;18.30;99.90;;;;;;5008180;28;20457;-75
2021/09/06 04:51:26;;;;;;;10.77;7.00;;;18.30;99.90;;;;;;5004409;28;20541;-73
2021/09/06 04:53:55;;;;;;;6.63;5.90;;;18.20;99.90;;;;;;5006551;28;20467;-75
2021/09/06 04:56:23;;;;;;;8.63;5.80;;;18.20;99.90;;;;;;5006519;28;20549;-76
2021/09/06 04:58:51;;;;;;;8.30;6.80;;;18.20;99.90;;;;;;5007065;28;20516;-75
2021/09/06 05:01:20;;;;;;;6.50;5.70;;;18.20;99.90;;;;;;5004652;28;21002;-75
2021/09/06 05:03:48;;;;;;;5.90;5.30;;;18.10;99.90;;;;;;5007194;28;20495;-76
2021/09/06 05:06:17;;;;;;;14.77;10.00;;;18.10;99.90;;;;;;5005999;28;20463;-75
2021/09/06 05:08:45;;;;;;;9.23;7.17;;;18.20;99.90;;;;;;5005502;28;20502;-71
2021/09/06 05:11:14;;;;;;;5.27;4.80;;;18.10;99.90;;;;;;5006344;28;20517;-74
2021/09/06 05:13:42;;;;;;;6.57;4.90;;;18.10;99.90;;;;;;5006601;28;20482;-75
2021/09/06 05:16:10;;;;;;;6.30;5.00;;;18.10;99.90;;;;;;5007360;28;20513;-75
2021/09/06 05:18:39;;;;;;;5.20;4.10;;;18.10;99.90;;;;;;5006419;28;20466;-74
2021/09/06 05:21:07;;;;;;;7.27;4.90;;;18.10;99.90;;;;;;5006608;28;20548;-72
2021/09/06 05:23:35;;;;;;;5.03;4.10;;;18.10;99.90;;;;;;5005460;28;20580;-75
2021/09/06 05:26:03;;;;;;;6.67;4.90;;;18.10;99.90;;;;;;5007550;28;20966;-75
2021/09/06 05:28:33;;;;;;;5.30;4.63;;;18.10;99.90;;;;;;5006545;28;20458;-75
2021/09/06 05:31:02;;;;;;;6.13;5.50;;;18.10;99.90;;;;;;5003155;28;21000;-75
2021/09/06 05:33:31;;;;;;;6.00;5.03;;;18.10;99.90;;;;;;5002196;28;20439;-71
2021/09/06 05:35:59;;;;;;;5.33;4.83;;;18.00;99.90;;;;;;5004094;28;20529;-71
2021/09/06 05:38:27;;;;;;;6.13;5.07;;;17.80;99.90;;;;;;4992207;28;20555;-70
2021/09/06 05:40:55;;;;;;;8.33;5.03;;;17.70;99.90;;;;;;5007916;28;21022;-77
2021/09/06 05:43:23;;;;;;;4.87;4.37;;;17.70;99.90;;;;;;5009247;28;20963;-80
2021/09/06 05:45:53;;;;;;;5.00;4.60;;;17.80;99.90;;;;;;5011195;28;20464;-80
2021/09/06 05:48:21;;;;;;;7.77;5.20;;;17.90;99.90;;;;;;5003934;28;20826;-78
2021/09/06 05:50:49;;;;;;;5.83;5.23;;;18.00;99.90;;;;;;5009621;28;20951;-80
2021/09/06 05:53:17;;;;;;;6.00;5.07;;;18.00;99.90;;;;;;5007617;28;20457;-80
2021/09/06 05:55:46;;;;;;;6.10;5.40;;;18.10;99.90;;;;;;5013671;28;20459;-79
2021/09/06 05:58:14;;;;;;;7.37;5.17;;;18.10;99.90;;;;;;5009792;28;20849;-77
2021/09/06 06:00:42;;;;;;;7.50;5.70;;;18.10;99.90;;;;;;5010389;28;20453;-77
2021/09/06 06:03:12;;;;;;;9.03;6.87;;;18.20;99.90;;;;;;5004693;28;20532;-80
2021/09/06 06:05:40;;;;;;;7.23;5.97;;;18.20;99.90;;;;;;5011304;28;20437;-81
2021/09/06 06:08:08;;;;;;;9.40;6.60;;;18.20;99.90;;;;;;5010769;28;20510;-81
2021/09/06 06:10:36;;;;;;;7.80;6.97;;;18.30;99.90;;;;;;5012105;28;20468;-80
2021/09/06 06:13:04;;;;;;;6.63;6.03;;;18.30;99.90;;;;;;5011287;28;20460;-81
2021/09/06 06:15:33;;;;;;;7.97;6.60;;;18.40;99.90;;;;;;5007092;28;20467;-81
2021/09/06 06:18:01;;;;;;;8.63;6.40;;;18.50;99.90;;;;;;5002958;28;21330;-80
2021/09/06 06:20:30;;;;;;;7.87;7.07;;;18.60;99.90;;;;;;5007399;28;20959;-79
2021/09/06 06:22:59;;;;;;;6.60;5.90;;;18.70;99.90;;;;;;5004993;28;20546;-78
2021/09/06 06:25:27;;;;;;;9.00;6.17;;;18.80;99.90;;;;;;5011455;28;20455;-81
2021/09/06 06:27:55;;;;;;;6.43;5.80;;;18.90;99.90;;;;;;5011739;28;20476;-79
2021/09/06 06:30:25;;;;;;;7.13;5.97;;;19.00;99.90;;;;;;5007067;28;20456;-79
2021/09/06 06:32:53;;;;;;;8.37;7.17;;;19.10;99.90;;;;;;5010294;28;20491;-79
2021/09/06 06:35:22;;;;;;;7.63;6.03;;;19.10;99.90;;;;;;5011487;28;20492;-79
2021/09/06 06:37:51;;;;;;;8.60;5.80;;;19.10;99.90;;;;;;5011671;28;20473;-80
2021/09/06 06:40:19;;;;;;;8.10;6.23;;;19.20;99.90;;;;;;5011611;28;20795;-79
2021/09/06 06:42:47;;;;;;;8.37;6.17;;;19.20;99.90;;;;;;5010539;28;20473;-80
2021/09/06 06:45:15;;;;;;;9.93;6.13;;;19.20;99.90;;;;;;5012613;28;20452;-79
2021/09/06 06:47:44;;;;;;;7.40;6.47;;;19.20;99.90;;;;;;5011278;28;20460;-80
2021/09/06 06:50:13;;;;;;;8.57;5.87;;;19.20;99.90;;;;;;5009722;28;20449;-80
2021/09/06 06:52:41;;;;;;;8.47;6.90;;;19.20;99.90;;;;;;5009552;28;20655;-80
2021/09/06 06:55:12;;;;;;;7.53;6.03;;;19.30;99.90;;;;;;5010582;28;20440;-81
2021/09/06 06:57:40;;;;;;;8.90;6.80;;;19.30;99.90;;;;;;5012111;28;20531;-80
2021/09/06 07:00:09;;;;;;;9.60;6.63;;;19.40;99.90;;;;;;5009147;28;20452;-80
2021/09/06 07:02:37;;;;;;;7.73;6.90;;;19.40;99.90;;;;;;5010781;28;20483;-82
2021/09/06 07:05:08;;;;;;;9.03;7.00;;;19.40;99.90;;;;;;5010422;28;20831;-80
2021/09/06 07:07:38;;;;;;;7.97;6.90;;;19.50;99.90;;;;;;5011511;28;20539;-80
2021/09/06 07:10:08;;;;;;;9.47;6.93;;;19.60;99.90;;;;;;5010716;28;20512;-80
2021/09/06 07:12:38;;;;;;;7.90;6.40;;;19.60;99.90;;;;;;5012017;28;20473;-79
2021/09/06 07:15:07;;;;;;;8.03;6.33;;;19.70;99.90;;;;;;5011050;28;20456;-80
2021/09/06 07:17:37;;;;;;;8.93;6.30;;;19.70;99.90;;;;;;5008131;28;20481;-81
2021/09/06 07:20:07;;;;;;;9.97;6.20;;;19.70;99.90;;;;;;5010222;28;20851;-80
2021/09/06 07:22:35;;;;;;;6.40;5.80;;;19.80;99.90;;;;;;5011725;28;20548;-79
2021/09/06 07:25:04;;;;;;;7.23;5.70;;;19.90;99.90;;;;;;5011271;28;20511;-80
2021/09/06 07:27:35;;;;;;;8.43;6.07;;;20.00;99.90;;;;;;5008986;28;20452;-81
2021/09/06 07:30:06;;;;;;;7.97;6.10;;;20.30;99.90;;;;;;5010380;28;20457;-81
2021/09/06 07:32:34;;;;;;;5.20;4.70;;;20.20;99.90;;;;;;5011288;28;20473;-80
2021/09/06 07:35:03;;;;;;;7.77;5.83;;;20.30;99.90;;;;;;5009596;28;20535;-81
2021/09/06 07:37:32;;;;;;;8.63;5.23;;;20.30;99.90;;;;;;5010621;28;20485;-78
2021/09/06 07:40:00;;;;;;;5.03;4.20;;;20.40;99.90;;;;;;5010028;28;20480;-80
2021/09/06 07:42:28;;;;;;;5.33;4.83;;;20.50;99.90;;;;;;5011097;28;20473;-81
2021/09/06 07:44:58;;;;;;;8.10;5.17;;;20.60;99.90;;;;;;5010991;28;20464;-80
2021/09/06 07:47:27;;;;;;;4.70;4.23;;;20.70;99.90;;;;;;5011807;28;20450;-82
2021/09/06 07:49:57;;;;;;;5.00;4.50;;;20.90;99.90;;;;;;5009655;28;20441;-80
2021/09/06 07:52:25;;;;;;;6.27;5.00;;;21.00;99.90;;;;;;5010091;28;20469;-81
2021/09/06 07:54:53;;;;;;;6.07;5.10;;;21.10;99.90;;;;;;5009214;28;20966;-80
2021/09/06 07:57:21;;;;;;;5.43;4.87;;;21.20;99.90;;;;;;5009480;28;20477;-80
2021/09/06 07:59:49;;;;;;;6.70;5.30;;;21.40;99.90;;;;;;5008749;28;20454;-80
2021/09/06 08:02:18;;;;;;;5.80;4.90;;;21.40;99.90;;;;;;5009744;28;20481;-80
2021/09/06 08:04:47;;;;;;;5.23;4.73;;;21.50;99.90;;;;;;5009789;28;20498;-79
2021/09/06 08:07:16;;;;;;;6.00;4.30;;;21.60;99.90;;;;;;5011946;28;20491;-78
2021/09/06 08:09:44;;;;;;;5.00;4.00;;;21.70;99.90;;;;;;5003415;28;20466;-79
2021/09/06 08:12:12;;;;;;;3.73;3.43;;;21.80;99.90;;;;;;5002703;28;20543;-77
2021/09/06 08:14:40;;;;;;;5.20;3.70;;;21.90;99.90;;;;;;5009512;28;20877;-76
2021/09/06 08:17:08;;;;;;;5.90;4.60;;;22.00;99.90;;;;;;5008302;28;20964;-78
2021/09/06 08:19:36;;;;;;;4.33;3.93;;;22.10;99.90;;;;;;5002076;28;20771;-78
2021/09/06 08:22:06;;;;;;;3.90;3.50;;;22.10;99.90;;;;;;5010482;28;20500;-77
2021/09/06 08:24:34;;;;;;;4.90;4.40;;;22.20;99.90;;;;;;5009732;28;20432;-79
2021/09/06 08:27:02;;;;;;;3.87;3.20;;;22.30;99.90;;;;;;5010315;28;20448;-78
2021/09/06 08:29:30;;;;;;;3.87;3.40;;;22.30;99.90;;;;;;5006161;28;20830;-78
2021/09/06 08:31:58;;;;;;;3.30;3.10;;;22.40;99.90;;;;;;5008482;28;20469;-76
2021/09/06 08:34:27;;;;;;;3.93;3.50;;;22.40;99.90;;;;;;5007575;28;20456;-78
2021/09/06 08:36:55;;;;;;;4.85;4.28;;;22.50;99.90;;;;;;5008166;28;20951;-76
2021/09/06 08:39:24;;;;;;;4.40;4.00;;;22.60;99.90;;;;;;5001237;28;20290;-77
2021/09/06 08:41:52;;;;;;;3.60;3.33;;;22.70;99.90;;;;;;5006460;28;20544;-78
2021/09/06 08:44:24;;;;;;;5.10;3.40;;;22.70;99.90;;;;;;5010706;28;20893;-78
2021/09/06 08:46:53;;;;;;;5.20;4.40;;;22.70;99.90;;;;;;5009825;28;20475;-77
2021/09/06 08:49:22;;;;;;;4.10;3.77;;;22.80;99.90;;;;;;5007806;28;20453;-77
2021/09/06 08:51:50;;;;;;;5.20;4.13;;;22.90;99.90;;;;;;5005231;28;20477;-76
2021/09/06 08:54:18;;;;;;;3.93;3.27;;;22.90;99.90;;;;;;5006449;28;20767;-76
2021/09/06 08:56:49;;;;;;;3.63;3.33;;;22.90;99.90;;;;;;5006278;28;20911;-78
2021/09/06 08:59:18;;;;;;;4.20;3.90;;;23.00;99.90;;;;;;5009624;28;20949;-76
2021/09/06 09:01:50;;;;;;;6.93;5.30;;;23.10;99.90;;;;;;5007328;28;20481;-77
2021/09/06 09:04:21;;;;;;;4.33;3.93;;;23.20;99.90;;;;;;5009586;28;20507;-78
2021/09/06 09:06:50;;;;;;;4.20;3.80;;;23.10;99.90;;;;;;5004599;28;20472;-77
2021/09/06 09:09:23;;;;;;;4.50;4.10;;;23.20;99.90;;;;;;5008225;28;20458;-77
2021/09/06 09:12:09;;;;;;;4.60;4.20;;;23.20;99.90;;;;;;5006648;28;21082;-77
2021/09/06 09:14:39;;;;;;;4.07;3.67;;;23.20;99.90;;;;;;5007129;28;20454;-78
2021/09/06 09:17:07;;;;;;;4.53;4.13;;;23.30;99.90;;;;;;5009041;28;20524;-77
2021/09/06 09:19:36;;;;;;;4.03;3.63;;;23.30;99.90;;;;;;5005239;28;20457;-79
2021/09/06 09:22:06;;;;;;;4.80;4.30;;;23.30;99.90;;;;;;5009563;28;20492;-77
2021/09/06 09:24:36;;;;;;;5.73;5.23;;;23.40;99.90;;;;;;5006741;28;20462;-77
2021/09/06 09:27:08;;;;;;;5.83;4.53;;;23.40;99.90;;;;;;5009032;28;20503;-77
2021/09/06 09:29:36;;;;;;;4.67;4.07;;;23.50;99.90;;;;;;5008498;28;20937;-76
2021/09/06 09:32:07;;;;;;;4.97;4.50;;;23.50;99.90;;;;;;5007095;28;20469;-77
2021/09/06 09:34:38;;;;;;;5.40;4.37;;;23.60;99.90;;;;;;5006158;28;20496;-76
2021/09/06 09:37:07;;;;;;;6.20;5.10;;;23.70;99.90;;;;;;5007815;28;20510;-78
2021/09/06 09:39:35;;;;;;;5.47;4.97;;;23.70;99.90;;;;;;5004614;28;20453;-75
2021/09/06 09:42:08;;;;;;;4.50;4.20;;;23.80;99.90;;;;;;5006418;28;20605;-75
2021/09/06 09:44:47;;;;;;;4.13;3.73;;;23.80;99.90;;;;;;5006514;28;20547;-78
2021/09/06 09:47:17;;;;;;;4.43;4.03;;;23.90;99.90;;;;;;5011501;28;20862;-77
2021/09/06 09:49:46;;;;;;;4.70;4.30;;;23.90;99.90;;;;;;5010342;28;20449;-76
2021/09/06 09:52:14;;;;;;;6.80;4.80;;;24.00;99.90;;;;;;5007899;28;20485;-77
2021/09/06 09:54:42;;;;;;;5.33;4.83;;;24.10;99.90;;;;;;5010888;28;20457;-77
2021/09/06 09:57:13;;;;;;;4.37;3.97;;;24.10;99.90;;;;;;5009873;28;20462;-77
2021/09/06 09:59:42;;;;;;;4.13;3.83;;;24.10;99.90;;;;;;5010242;28;20500;-78
2021/09/06 10:02:14;;;;;;;4.73;4.33;;;24.20;99.90;;;;;;5010100;28;20483;-75
2021/09/06 10:04:48;;;;;;;5.47;4.97;;;24.20;99.90;;;;;;5009386;28;20481;-77
2021/09/06 10:07:18;;;;;;;4.50;4.10;;;24.20;99.90;;;;;;5003952;28;20453;-79
2021/09/06 10:09:48;;;;;;;7.20;4.53;;;24.30;99.90;;;;;;5008829;28;20952;-79
2021/09/06 10:12:21;;;;;;;5.27;4.80;;;24.40;99.90;;;;;;5008985;28;20476;-76
2021/09/06 10:14:51;;;;;;;7.00;4.00;;;24.40;99.90;;;;;;5008935;28;20537;-77
2021/09/06 10:17:34;;;;;;;5.23;4.33;;;24.40;99.90;;;;;;5009315;28;20446;-78
2021/09/06 10:20:16;;;;;;;5.33;4.37;;;24.40;99.90;;;;;;5006720;28;20449;-78
2021/09/06 10:22:46;;;;;;;5.30;4.80;;;24.40;99.90;;;;;;5003646;28;20473;-78
2021/09/06 10:25:19;;;;;;;4.70;4.30;;;24.50;99.90;;;;;;5010040;28;20460;-77
2021/09/06 10:27:57;;;;;;;4.70;4.30;;;24.50;99.90;;;;;;5012675;28;20453;-77
2021/09/06 10:30:35;;;;;;;4.57;3.80;;;24.50;99.90;;;;;;5005701;28;20467;-77
2021/09/06 10:33:04;;;;;;;5.80;4.20;;;24.50;99.90;;;;;;5014067;28;20473;-76
2021/09/06 10:35:33;;;;;;;6.20;4.27;;;24.50;99.90;;;;;;5013980;28;20551;-77
2021/09/06 10:38:04;;;;;;;5.60;5.10;;;24.50;99.90;;;;;;5012985;28;20955;-76
2021/09/06 10:40:34;;;;;;;4.87;4.30;;;24.60;99.90;;;;;;5013389;28;20454;-76
2021/09/06 10:43:15;;;;;;;4.40;3.77;;;24.70;99.90;;;;;;5014332;28;20981;-77
2021/09/06 10:45:47;;;;;;;4.33;4.03;;;24.70;99.90;;;;;;4992949;28;20489;-76
2021/09/06 10:48:20;;;;;;;4.63;4.23;;;24.70;99.90;;;;;;5006131;28;20996;-78
2021/09/06 10:50:49;;;;;;;5.20;4.55;;;24.70;99.90;;;;;;5008257;28;20435;-77
2021/09/06 10:53:19;;;;;;;5.20;4.70;;;24.70;99.90;;;;;;5011961;28;20194;-78
2021/09/06 10:55:49;;;;;;;4.90;4.40;;;24.80;99.90;;;;;;5004134;28;20914;-77
2021/09/06 10:58:21;;;;;;;4.60;4.27;;;24.80;99.90;;;;;;5011715;28;20531;-77
2021/09/06 11:00:52;;;;;;;5.10;4.60;;;24.80;99.90;;;;;;5008738;28;21027;-76
2021/09/06 11:03:21;;;;;;;5.60;3.70;;;24.80;99.90;;;;;;5008965;28;20862;-77
2021/09/06 11:05:54;;;;;;;5.23;4.63;;;24.90;99.90;;;;;;5011653;28;20552;-76
2021/09/06 11:08:26;;;;;;;8.77;5.43;;;24.90;99.90;;;;;;5010886;28;20453;-77
2021/09/06 11:10:55;;;;;;;5.97;4.40;;;25.00;99.90;;;;;;5010656;28;20446;-77
2021/09/06 11:13:34;;;;;;;6.93;5.23;;;25.00;99.90;;;;;;5009350;28;20464;-77
2021/09/06 11:16:03;;;;;;;5.20;4.70;;;24.90;99.90;;;;;;5007343;28;20995;-76
2021/09/06 11:18:37;;;;;;;8.90;5.90;;;24.90;99.90;;;;;;5006974;28;20474;-77
2021/09/06 11:21:06;;;;;;;10.80;5.83;;;25.00;99.90;;;;;;5011651;28;20511;-76
2021/09/06 11:23:36;;;;;;;4.70;3.90;;;25.00;99.90;;;;;;5011434;28;20449;-77
2021/09/06 11:26:05;;;;;;;6.27;5.60;;;25.00;99.90;;;;;;5010341;28;20451;-76
2021/09/06 11:28:35;;;;;;;7.57;5.43;;;25.10;99.90;;;;;;5011492;28;20504;-78
2021/09/06 11:31:03;;;;;;;5.97;4.80;;;25.10;99.90;;;;;;5008480;28;20469;-78
2021/09/06 11:33:32;;;;;;;5.87;5.10;;;25.20;99.90;;;;;;5008015;28;20551;-78
2021/09/06 11:36:00;;;;;;;5.17;4.67;;;25.20;99.90;;;;;;5008271;28;20454;-77
2021/09/06 11:38:28;;;;;;;8.10;4.57;;;25.40;99.90;;;;;;5006888;28;20465;-78
2021/09/06 11:40:58;;;;;;;5.70;5.27;;;25.30;99.90;;;;;;5009160;28;20457;-77
2021/09/06 11:43:26;;;;;;;4.80;4.40;;;25.30;99.90;;;;;;5010421;28;20532;-78
2021/09/06 11:46:03;;;;;;;5.90;4.50;;;25.20;99.90;;;;;;5011467;28;20449;-75
2021/09/06 11:48:41;;;;;;;4.60;4.10;;;25.20;99.90;;;;;;5010344;28;20445;-76
2021/09/06 11:51:10;;;;;;;5.63;4.80;;;25.20;99.90;;;;;;5009311;28;20508;-75
2021/09/06 11:53:39;;;;;;;5.23;4.37;;;25.20;99.90;;;;;;5005665;28;20450;-76
2021/09/06 11:56:14;;;;;;;5.03;3.90;;;25.20;99.90;;;;;;5007024;28;20508;-77
2021/09/06 11:58:47;;;;;;;4.40;4.00;;;25.30;99.90;;;;;;5007853;28;20492;-77
2021/09/06 12:01:17;;;;;;;5.47;4.97;;;25.30;99.90;;;;;;5010221;28;20543;-76
2021/09/06 12:03:47;;;;;;;5.33;4.90;;;25.40;99.90;;;;;;5008198;28;20457;-76
2021/09/06 12:06:18;;;;;;;5.33;4.83;;;25.40;99.90;;;;;;5006118;28;20453;-77
2021/09/06 12:08:53;;;;;;;7.83;5.20;;;25.40;99.90;;;;;;5005143;28;20485;-77
2021/09/06 12:11:43;;;;;;;4.90;4.40;;;25.40;99.90;;;;;;5005896;28;20501;-78
2021/09/06 12:14:11;;;;;;;9.73;5.20;;;25.50;99.90;;;;;;5011092;28;20441;-78
2021/09/06 12:16:41;;;;;;;5.60;5.00;;;25.40;99.90;;;;;;5017002;28;20479;-77
2021/09/06 12:19:18;;;;;;;6.60;6.00;;;25.50;99.90;;;;;;5004529;28;20469;-78
2021/09/06 12:21:47;;;;;;;4.63;4.23;;;25.50;99.90;;;;;;5009093;28;20469;-77
2021/09/06 12:24:20;;;;;;;5.17;4.67;;;25.50;99.90;;;;;;5010787;28;20809;-77
2021/09/06 12:26:50;;;;;;;5.70;4.60;;;25.50;99.90;;;;;;5008418;28;20461;-78
2021/09/06 12:29:27;;;;;;;5.17;4.77;;;25.50;99.90;;;;;;5006986;28;20456;-78
2021/09/06 12:31:56;;;;;;;5.17;4.67;;;25.50;99.90;;;;;;5008181;28;20483;-77
2021/09/06 12:34:25;;;;;;;3.90;3.60;;;25.50;99.90;;;;;;4996629;28;20465;-76
2021/09/06 12:36:58;;;;;;;4.17;3.87;;;25.50;99.90;;;;;;5005122;28;20465;-78
2021/09/06 12:39:26;;;;;;;6.00;5.50;;;25.60;99.90;;;;;;5005282;28;20478;-78
2021/09/06 12:41:55;;;;;;;5.00;4.53;;;25.60;99.90;;;;;;5007847;28;20218;-77
2021/09/06 12:44:23;;;;;;;4.83;4.40;;;25.60;99.90;;;;;;5010266;28;20453;-76
2021/09/06 12:46:51;;;;;;;5.50;4.40;;;25.70;99.90;;;;;;5006732;28;20536;-76
2021/09/06 12:49:25;;;;;;;5.20;4.13;;;25.70;99.90;;;;;;5005868;28;20453;-77
2021/09/06 12:51:53;;;;;;;5.30;4.60;;;25.70;99.90;;;;;;5006630;28;20481;-77
2021/09/06 12:54:21;;;;;;;4.50;4.20;;;25.70;99.90;;;;;;5009824;28;20460;-78